Stovall, North Carolina
Current Conditions -  °F | °C
As of 5:35 AM on Thursday 23 Oct 2014 (Local Time) from KHNZ Reporting Station
Clear Clear  
Wind Chill: 45°   Ceiling: Unl
Heat Index: 47°   Visibility: 10mi
Dew Point: 39°   Wind: 5mph
Humidity: 72%   Direction: 270°W
Pressure: 29.98"   Gusts: NA
Location:  36.45°N, 78.57°W
Report Text: KHNZ 230935Z AUTO 27004KT 10SM CLR 08/04 A2998 RMK AO2 T00840037
Loading
Personal Weather Stations






























Interactive Weather Map
Tropical Storm Tracking
New forecast layout! Learn more

10-Day Weather Forecast

Advertisements
Track Severe Weather on mobile